createdAt,value
2023-04-15T00:00:46.569Z,5.95
2023-04-15T00:03:31.662Z,5.35
2023-04-15T00:06:16.907Z,9.13
2023-04-15T00:09:02.415Z,4.75
2023-04-15T00:11:47.731Z,4.13
2023-04-15T00:14:34.638Z,3.90
2023-04-15T00:17:19.647Z,4.90
2023-04-15T00:20:06.296Z,6.23
2023-04-15T00:22:51.085Z,5.72
2023-04-15T00:25:36.038Z,5.90
2023-04-15T00:28:21.557Z,5.32
2023-04-15T00:31:06.429Z,4.65
2023-04-15T00:33:51.673Z,6.47
2023-04-15T00:36:36.492Z,4.03
2023-04-15T00:39:22.695Z,4.03
2023-04-15T00:42:07.701Z,6.93
2023-04-15T00:44:53.086Z,8.73
2023-04-15T00:47:41.436Z,7.73
2023-04-15T00:50:26.075Z,4.47
2023-04-15T00:53:11.062Z,4.53
2023-04-15T00:55:56.193Z,4.80
2023-04-15T00:58:41.853Z,6.63
2023-04-15T01:01:27.292Z,6.80
2023-04-15T01:04:12.977Z,4.85
2023-04-15T01:06:57.922Z,4.82
2023-04-15T01:09:43.023Z,13.90
2023-04-15T01:12:28.960Z,4.50
2023-04-15T01:15:14.656Z,5.93
2023-04-15T01:17:59.825Z,5.82
2023-04-15T01:20:44.784Z,8.50
2023-04-15T01:23:29.846Z,5.70
2023-04-15T01:26:16.211Z,3.95
2023-04-15T01:29:01.397Z,5.10
2023-04-15T01:31:53.751Z,4.50
2023-04-15T01:34:38.989Z,4.82
2023-04-15T01:37:24.532Z,6.38
2023-04-15T01:40:12.194Z,3.85
2023-04-15T01:42:57.015Z,3.60
2023-04-15T01:45:42.183Z,6.30
2023-04-15T01:48:27.230Z,4.45
2023-04-15T01:51:12.780Z,6.15
2023-04-15T01:53:57.713Z,4.60
2023-04-15T01:56:42.798Z,6.37
2023-04-15T01:59:27.596Z,4.07
2023-04-15T02:02:12.612Z,4.88
2023-04-15T02:04:57.953Z,3.58
2023-04-15T02:07:43.432Z,4.88
2023-04-15T02:10:28.339Z,4.33
2023-04-15T02:13:13.691Z,7.32
2023-04-15T02:15:59.605Z,6.63
2023-04-15T02:18:47.810Z,7.82
2023-04-15T02:21:32.840Z,2.95
2023-04-15T02:24:17.837Z,4.17
2023-04-15T02:27:03.446Z,4.30
2023-04-15T02:29:50.769Z,3.60
2023-04-15T02:32:35.795Z,4.57
2023-04-15T02:35:20.907Z,4.07
2023-04-15T02:38:06.248Z,4.20
2023-04-15T02:40:51.093Z,4.30
2023-04-15T02:43:36.011Z,6.18
2023-04-15T02:46:22.713Z,5.47
2023-04-15T02:49:08.425Z,7.47
2023-04-15T02:51:53.858Z,3.53
2023-04-15T02:54:38.579Z,4.05
2023-04-15T02:57:23.627Z,5.70
2023-04-15T03:00:10.062Z,4.45
2023-04-15T03:03:02.797Z,4.07
2023-04-15T03:05:47.625Z,4.03
2023-04-15T03:08:32.374Z,4.35
2023-04-15T03:11:18.574Z,5.93
2023-04-15T03:14:03.394Z,7.30
2023-04-15T03:16:50.402Z,4.72
2023-04-15T03:19:35.159Z,5.80
2023-04-15T03:22:20.407Z,6.20
2023-04-15T03:25:05.570Z,3.90
2023-04-15T03:27:50.926Z,5.13
2023-04-15T03:30:35.945Z,4.45
2023-04-15T03:33:21.385Z,4.93
2023-04-15T03:36:06.934Z,4.60
2023-04-15T03:38:51.757Z,6.65
2023-04-15T03:41:36.748Z,5.45
2023-04-15T03:44:21.550Z,4.18
2023-04-15T03:47:06.588Z,5.60
2023-04-15T03:49:51.288Z,4.53
2023-04-15T03:52:36.220Z,6.70
2023-04-15T03:55:21.324Z,3.97
2023-04-15T03:58:06.431Z,7.30
2023-04-15T04:00:51.646Z,5.43
2023-04-15T04:03:37.948Z,5.07
2023-04-15T04:06:23.254Z,3.90
2023-04-15T04:09:08.119Z,6.75
2023-04-15T04:11:53.437Z,5.32
2023-04-15T04:14:38.215Z,4.87
2023-04-15T04:17:23.480Z,6.32
2023-04-15T04:20:08.601Z,4.70
2023-04-15T04:22:53.436Z,5.65
2023-04-15T04:25:38.992Z,5.95
2023-04-15T04:28:23.858Z,4.37
2023-04-15T04:31:08.830Z,4.32
2023-04-15T04:33:53.774Z,4.45
2023-04-15T04:36:38.653Z,5.57
2023-04-15T04:39:23.739Z,5.85
2023-04-15T04:42:08.504Z,5.30
2023-04-15T04:44:53.796Z,5.65
2023-04-15T04:47:38.606Z,5.05
2023-04-15T04:50:23.650Z,6.53
2023-04-15T04:53:08.275Z,4.50
2023-04-15T04:55:53.500Z,7.10
2023-04-15T04:58:38.345Z,5.70
2023-04-15T05:01:23.418Z,5.18
2023-04-15T05:04:08.391Z,5.65
2023-04-15T05:06:53.219Z,5.80
2023-04-15T05:09:38.195Z,5.47
2023-04-15T05:12:23.143Z,4.32
2023-04-15T05:15:08.795Z,5.10
2023-04-15T05:17:53.524Z,4.60
2023-04-15T05:20:38.418Z,8.30
2023-04-15T05:23:23.283Z,8.67
2023-04-15T05:26:08.012Z,7.72
2023-04-15T05:28:53.069Z,6.43
2023-04-15T05:31:37.812Z,4.97
2023-04-15T05:34:22.898Z,5.80
2023-04-15T05:37:07.783Z,5.23
2023-04-15T05:39:52.657Z,5.25
2023-04-15T05:42:37.514Z,6.38
2023-04-15T05:45:22.604Z,8.20
2023-04-15T05:48:08.229Z,7.43
2023-04-15T05:50:53.160Z,5.77
2023-04-15T05:53:38.706Z,7.43
2023-04-15T05:56:23.523Z,7.13
2023-04-15T05:59:08.510Z,5.47
2023-04-15T06:01:53.664Z,6.55
2023-04-15T06:04:39.447Z,8.10
2023-04-15T06:07:24.698Z,7.70
2023-04-15T06:10:10.382Z,5.03
2023-04-15T06:12:55.285Z,5.30
2023-04-15T06:15:40.005Z,6.20
2023-04-15T06:18:25.254Z,6.03
2023-04-15T06:21:10.470Z,12.95
2023-04-15T06:23:56.653Z,8.18
2023-04-15T06:26:41.530Z,5.28
2023-04-15T06:29:26.574Z,10.93
2023-04-15T06:32:12.176Z,9.60
2023-04-15T06:34:57.056Z,9.00
2023-04-15T06:37:41.898Z,6.53
2023-04-15T06:40:27.707Z,7.00
2023-04-15T06:43:12.818Z,11.63
2023-04-15T06:45:58.102Z,9.43
2023-04-15T06:48:42.608Z,9.98
2023-04-15T06:51:27.706Z,9.45
2023-04-15T06:54:12.461Z,11.68
2023-04-15T06:56:57.735Z,8.90
2023-04-15T06:59:43.282Z,11.93
2023-04-15T07:02:28.286Z,11.95
2023-04-15T07:05:13.462Z,12.40
2023-04-15T07:07:58.489Z,11.30
2023-04-15T07:10:43.513Z,9.45
2023-04-15T07:13:31.885Z,10.37
2023-04-15T07:16:17.228Z,18.50
2023-04-15T07:19:02.288Z,8.77
2023-04-15T07:21:47.640Z,8.98
2023-04-15T07:24:32.792Z,11.07
2023-04-15T07:27:17.978Z,5.77
2023-04-15T07:30:03.258Z,12.27
2023-04-15T07:32:48.223Z,11.25
2023-04-15T07:35:33.300Z,9.45
2023-04-15T07:38:18.364Z,8.90
2023-04-15T07:41:03.353Z,9.30
2023-04-15T07:43:48.701Z,11.98
2023-04-15T07:46:33.571Z,9.05
2023-04-15T07:49:19.373Z,9.40
2023-04-15T07:52:04.541Z,9.93
2023-04-15T07:54:49.422Z,7.73
2023-04-15T07:57:37.623Z,8.45
2023-04-15T08:00:22.717Z,7.82
2023-04-15T08:03:07.849Z,11.30
2023-04-15T08:05:52.994Z,11.35
2023-04-15T08:08:37.816Z,7.53
2023-04-15T08:11:24.350Z,10.38
2023-04-15T08:14:09.058Z,8.65
2023-04-15T08:16:53.926Z,8.70
2023-04-15T08:19:40.690Z,7.78
2023-04-15T08:22:25.788Z,10.13
2023-04-15T08:25:10.859Z,7.95
2023-04-15T08:27:57.874Z,7.80
2023-04-15T08:30:42.935Z,7.35
2023-04-15T08:33:28.794Z,9.38
2023-04-15T08:36:13.894Z,8.20
2023-04-15T08:39:01.282Z,7.35
2023-04-15T08:41:51.562Z,6.50
2023-04-15T08:44:40.051Z,9.77
2023-04-15T08:47:29.768Z,8.25
2023-04-15T08:50:16.547Z,13.57
2023-04-15T08:53:02.426Z,9.88
2023-04-15T08:55:57.152Z,10.15
2023-04-15T08:58:44.057Z,8.93
2023-04-15T09:01:29.414Z,8.43
2023-04-15T09:04:14.824Z,8.80
2023-04-15T09:06:59.592Z,8.15
2023-04-15T09:09:44.378Z,7.13
2023-04-15T09:12:29.421Z,6.13
2023-04-15T09:15:16.276Z,4.95
2023-04-15T09:18:01.378Z,3.80
2023-04-15T09:20:46.087Z,4.38
2023-04-15T09:23:32.454Z,2.90
2023-04-15T09:26:17.217Z,3.85
2023-04-15T09:29:07.387Z,2.78
2023-04-15T09:31:52.707Z,3.17
2023-04-15T09:34:38.334Z,3.72
2023-04-15T09:37:35.489Z,2.95
2023-04-15T09:40:37.033Z,2.80
2023-04-15T09:43:22.784Z,2.95
2023-04-15T09:46:08.059Z,3.73
2023-04-15T09:49:10.135Z,3.45
2023-04-15T09:52:05.826Z,2.13
2023-04-15T09:54:55.214Z,2.42
2023-04-15T09:57:44.559Z,2.28
2023-04-15T10:00:29.697Z,4.17
2023-04-15T10:03:20.182Z,2.58
2023-04-15T10:06:05.595Z,2.60
2023-04-15T10:08:51.004Z,2.90
2023-04-15T10:11:35.839Z,4.18
2023-04-15T10:14:21.905Z,4.07
2023-04-15T10:17:08.233Z,3.03
2023-04-15T10:19:54.857Z,2.65
2023-04-15T10:22:42.120Z,2.25
2023-04-15T10:25:26.956Z,2.70
2023-04-15T10:28:12.184Z,3.97
2023-04-15T10:30:59.212Z,3.63
2023-04-15T10:33:44.456Z,5.20
2023-04-15T10:36:32.083Z,3.57
2023-04-15T10:39:43.597Z,4.97
2023-04-15T10:42:35.183Z,3.53
2023-04-15T10:45:20.206Z,3.70
2023-04-15T10:48:08.503Z,3.97
2023-04-15T10:50:57.513Z,3.33
2023-04-15T10:53:43.014Z,4.05
2023-04-15T10:56:29.312Z,4.43
2023-04-15T10:59:16.314Z,3.80
2023-04-15T11:02:08.188Z,4.15
2023-04-15T11:04:55.694Z,4.53
2023-04-15T11:07:46.774Z,4.35
2023-04-15T11:10:31.572Z,5.67
2023-04-15T11:13:21.667Z,5.18
2023-04-15T11:16:07.332Z,5.70
2023-04-15T11:18:56.035Z,5.55
2023-04-15T11:21:41.154Z,4.95
2023-04-15T11:24:28.974Z,4.50
2023-04-15T11:27:23.710Z,4.63
2023-04-15T11:30:26.500Z,5.50
2023-04-15T11:33:12.601Z,4.10
2023-04-15T11:35:57.275Z,4.28
2023-04-15T11:38:42.922Z,4.83
2023-04-15T11:41:27.617Z,5.20
2023-04-15T11:44:18.845Z,5.43
2023-04-15T11:47:22.876Z,4.07
2023-04-15T11:50:16.436Z,4.93
2023-04-15T11:53:08.391Z,5.57
2023-04-15T11:55:53.864Z,6.30
2023-04-15T11:58:39.131Z,6.25
2023-04-15T12:01:42.222Z,5.18
2023-04-15T12:04:27.501Z,4.28
2023-04-15T12:07:12.736Z,4.40
2023-04-15T12:09:58.212Z,3.90
2023-04-15T12:12:43.263Z,6.32
2023-04-15T12:15:28.465Z,6.10
2023-04-15T12:18:19.294Z,5.47
2023-04-15T12:21:09.799Z,6.60
2023-04-15T12:23:56.476Z,5.80
2023-04-15T12:26:53.304Z,5.55
2023-04-15T12:29:41.607Z,5.55
2023-04-15T12:32:27.235Z,5.80
2023-04-15T12:35:12.091Z,5.80
2023-04-15T12:37:57.027Z,6.93
2023-04-15T12:40:42.110Z,5.55
2023-04-15T12:43:27.541Z,5.55
2023-04-15T12:46:13.314Z,5.53
2023-04-15T12:48:58.384Z,4.30
2023-04-15T12:51:43.365Z,4.68
2023-04-15T12:54:29.729Z,4.18
2023-04-15T12:57:14.705Z,4.88
2023-04-15T12:59:59.749Z,6.60
2023-04-15T13:02:44.883Z,6.17
2023-04-15T13:05:29.700Z,3.53
2023-04-15T13:08:14.817Z,3.83
2023-04-15T13:10:59.953Z,5.63
2023-04-15T13:13:44.866Z,6.63
2023-04-15T13:16:30.513Z,4.30
2023-04-15T13:19:15.681Z,4.00
2023-04-15T13:22:00.478Z,5.38
2023-04-15T13:24:45.453Z,4.55
2023-04-15T13:27:31.405Z,5.03
2023-04-15T13:30:16.392Z,3.97
2023-04-15T13:33:01.324Z,5.30
2023-04-15T13:35:46.344Z,4.00
2023-04-15T13:38:31.317Z,4.47
2023-04-15T13:41:16.330Z,6.18
2023-04-15T13:44:01.237Z,6.03
2023-04-15T13:46:46.004Z,10.30
2023-04-15T13:49:31.135Z,10.13
2023-04-15T13:52:15.951Z,10.32
2023-04-15T13:55:18.547Z,9.75
2023-04-15T13:58:04.559Z,10.53
2023-04-15T14:00:49.471Z,9.32
2023-04-15T14:03:35.192Z,9.60
2023-04-15T14:06:20.511Z,8.95
2023-04-15T14:09:05.355Z,8.68
2023-04-15T14:11:50.932Z,7.83
2023-04-15T14:14:35.945Z,9.10
2023-04-15T14:17:21.063Z,8.63
2023-04-15T14:20:07.860Z,9.32
2023-04-15T14:22:52.888Z,10.60
2023-04-15T14:25:39.153Z,11.50
2023-04-15T14:28:24.796Z,9.90
2023-04-15T14:31:09.721Z,10.02
2023-04-15T14:33:54.725Z,10.20
2023-04-15T14:36:40.403Z,10.23
2023-04-15T14:39:25.475Z,10.07
2023-04-15T14:42:10.389Z,10.88
2023-04-15T14:44:55.565Z,9.05
2023-04-15T14:47:40.752Z,10.52
2023-04-15T14:50:25.644Z,10.63
2023-04-15T14:53:10.796Z,9.37
2023-04-15T14:55:55.925Z,8.77
2023-04-15T14:58:40.828Z,7.95
2023-04-15T15:01:26.009Z,9.75
2023-04-15T15:04:11.292Z,9.32
2023-04-15T15:06:56.374Z,9.50
2023-04-15T15:09:41.502Z,9.40
2023-04-15T15:12:26.299Z,9.55
2023-04-15T15:15:19.819Z,7.78
2023-04-15T15:18:14.773Z,7.07
2023-04-15T15:20:59.810Z,6.57
2023-04-15T15:23:45.074Z,5.25
2023-04-15T15:26:30.237Z,5.35
2023-04-15T15:29:14.977Z,5.25
2023-04-15T15:32:00.161Z,6.90
2023-04-15T15:34:45.042Z,9.10
2023-04-15T15:37:30.746Z,6.15
2023-04-15T15:40:15.493Z,5.32
2023-04-15T15:43:00.606Z,7.10
2023-04-15T15:45:45.563Z,5.57
2023-04-15T15:48:30.313Z,5.77
2023-04-15T15:51:15.252Z,5.13
2023-04-15T15:54:00.902Z,7.60
2023-04-15T15:56:45.843Z,7.30
2023-04-15T15:59:30.809Z,5.43
2023-04-15T16:02:16.117Z,7.43
2023-04-15T16:05:01.114Z,7.43
2023-04-15T16:07:45.985Z,6.38
2023-04-15T16:10:31.376Z,7.03
2023-04-15T16:13:16.118Z,5.88
2023-04-15T16:16:01.246Z,7.20
2023-04-15T16:18:45.924Z,6.10
2023-04-15T16:21:31.436Z,4.15
2023-04-15T16:24:16.552Z,3.92
2023-04-15T16:27:01.891Z,4.70
2023-04-15T16:29:47.065Z,4.50
2023-04-15T16:32:31.882Z,4.07
2023-04-15T16:35:16.871Z,5.45
2023-04-15T16:38:01.736Z,5.75
2023-04-15T16:40:46.789Z,4.55
2023-04-15T16:43:31.870Z,5.23
2023-04-15T16:46:16.812Z,8.25
2023-04-15T16:49:01.806Z,5.35
2023-04-15T16:51:46.626Z,8.23
2023-04-15T16:54:33.436Z,6.50
2023-04-15T16:57:18.292Z,8.67
2023-04-15T17:00:03.804Z,6.72
2023-04-15T17:02:49.074Z,5.20
2023-04-15T17:05:34.229Z,7.07
2023-04-15T17:08:19.419Z,8.00
2023-04-15T17:11:04.072Z,6.63
2023-04-15T17:13:49.336Z,9.15
2023-04-15T17:16:34.092Z,7.30
2023-04-15T17:19:19.273Z,6.38
2023-04-15T17:22:03.966Z,6.07
2023-04-15T17:24:48.950Z,6.23
2023-04-15T17:27:34.048Z,7.00
2023-04-15T17:30:18.942Z,6.68
2023-04-15T17:33:04.101Z,5.40
2023-04-15T17:36:09.181Z,7.88
2023-04-15T17:38:56.075Z,5.13
2023-04-15T17:41:41.214Z,8.63
2023-04-15T17:44:26.245Z,5.53
2023-04-15T17:47:11.409Z,3.45
2023-04-15T17:49:56.245Z,5.32
2023-04-15T17:52:41.268Z,6.47
2023-04-15T17:55:26.303Z,4.65
2023-04-15T17:58:11.377Z,5.57
2023-04-15T18:00:59.849Z,4.25
2023-04-15T18:03:44.939Z,4.65
2023-04-15T18:06:29.931Z,4.90
2023-04-15T18:09:14.820Z,4.53
2023-04-15T18:12:00.057Z,5.13
2023-04-15T18:14:44.849Z,4.20
2023-04-15T18:17:30.471Z,4.00
2023-04-15T18:20:15.818Z,3.60
2023-04-15T18:23:00.799Z,3.45
2023-04-15T18:25:45.899Z,2.70
2023-04-15T18:28:31.184Z,4.60
2023-04-15T18:31:16.350Z,4.45
2023-04-15T18:34:04.873Z,4.70
2023-04-15T18:36:50.134Z,3.30
2023-04-15T18:39:34.764Z,4.35
2023-04-15T18:42:20.291Z,5.88
2023-04-15T18:45:05.832Z,4.53
2023-04-15T18:47:51.300Z,5.73
2023-04-15T18:50:36.017Z,3.75
2023-04-15T18:53:21.288Z,6.05
2023-04-15T18:56:06.493Z,3.30
2023-04-15T18:59:08.883Z,3.42
2023-04-15T19:01:58.812Z,5.20
2023-04-15T19:04:43.493Z,7.03
2023-04-15T19:07:30.069Z,5.25
2023-04-15T19:10:14.883Z,7.18
2023-04-15T19:12:59.965Z,6.97
2023-04-15T19:15:44.676Z,5.90
2023-04-15T19:18:29.749Z,4.53
2023-04-15T19:21:15.344Z,6.32
2023-04-15T19:24:00.856Z,4.95
2023-04-15T19:26:49.947Z,3.78
2023-04-15T19:29:35.150Z,4.07
2023-04-15T19:32:21.037Z,5.03
2023-04-15T19:35:06.621Z,4.85
2023-04-15T19:37:51.472Z,4.97
2023-04-15T19:40:36.333Z,5.13
2023-04-15T19:43:21.352Z,4.10
2023-04-15T19:46:06.945Z,4.55
2023-04-15T19:48:53.033Z,5.78
2023-04-15T19:51:37.883Z,4.10
2023-04-15T19:54:23.942Z,3.42
2023-04-15T19:57:08.811Z,11.63
2023-04-15T19:59:53.929Z,5.03
2023-04-15T20:02:38.872Z,4.05
2023-04-15T20:05:24.210Z,7.88
2023-04-15T20:08:09.635Z,5.28
2023-04-15T20:10:54.565Z,6.23
2023-04-15T20:13:39.244Z,3.17
2023-04-15T20:16:24.789Z,5.78
2023-04-15T20:19:09.566Z,5.15
2023-04-15T20:21:54.517Z,3.47
2023-04-15T20:24:39.329Z,4.07
2023-04-15T20:27:24.401Z,5.57
2023-04-15T20:30:09.823Z,6.70
2023-04-15T20:32:54.934Z,4.07
2023-04-15T20:35:39.680Z,5.68
2023-04-15T20:38:24.652Z,5.93
2023-04-15T20:41:09.435Z,5.70
2023-04-15T20:43:54.476Z,7.95
2023-04-15T20:46:39.209Z,3.75
2023-04-15T20:49:24.299Z,8.82
2023-04-15T20:52:09.267Z,5.57
2023-04-15T20:54:54.380Z,7.28
2023-04-15T20:57:39.177Z,6.30
2023-04-15T21:00:24.245Z,5.63
2023-04-15T21:03:09.229Z,4.90
2023-04-15T21:05:54.106Z,4.83
2023-04-15T21:08:39.013Z,10.23
2023-04-15T21:11:43.023Z,6.22
2023-04-15T21:14:29.678Z,7.05
2023-04-15T21:17:14.522Z,5.25
2023-04-15T21:19:59.516Z,5.67
2023-04-15T21:22:44.615Z,5.40
2023-04-15T21:25:29.441Z,5.65
2023-04-15T21:28:14.508Z,5.45
2023-04-15T21:30:59.532Z,8.30
2023-04-15T21:33:44.310Z,6.70
2023-04-15T21:36:29.342Z,5.03
2023-04-15T21:39:14.256Z,5.63
2023-04-15T21:41:59.413Z,5.60
2023-04-15T21:44:44.169Z,4.00
2023-04-15T21:47:29.280Z,4.83
2023-04-15T21:50:14.568Z,5.82
2023-04-15T21:52:59.559Z,4.68
2023-04-15T21:55:44.219Z,5.15
2023-04-15T21:58:29.379Z,3.42
2023-04-15T22:01:14.145Z,5.80
2023-04-15T22:03:59.288Z,3.72
2023-04-15T22:06:44.139Z,10.75
2023-04-15T22:09:29.236Z,4.10
2023-04-15T22:12:14.080Z,6.10
2023-04-15T22:14:59.095Z,5.00
2023-04-15T22:17:43.930Z,6.57
2023-04-15T22:20:29.127Z,4.05
2023-04-15T22:23:17.425Z,4.50
2023-04-15T22:26:02.411Z,5.78
2023-04-15T22:28:47.307Z,6.80
2023-04-15T22:31:32.429Z,5.30
2023-04-15T22:34:21.238Z,11.25
2023-04-15T22:37:06.284Z,5.30
2023-04-15T22:39:51.827Z,5.68
2023-04-15T22:42:36.826Z,5.03
2023-04-15T22:45:22.063Z,5.85
2023-04-15T22:48:06.881Z,6.65
2023-04-15T22:50:52.031Z,12.80
2023-04-15T22:53:37.187Z,10.63
2023-04-15T22:56:23.080Z,8.80
2023-04-15T22:59:08.491Z,10.00
2023-04-15T23:01:53.875Z,7.70
2023-04-15T23:04:39.191Z,11.15
2023-04-15T23:07:24.513Z,11.57
2023-04-15T23:10:09.691Z,10.43
2023-04-15T23:12:54.643Z,12.30
2023-04-15T23:15:39.525Z,9.18
2023-04-15T23:18:24.674Z,8.45
2023-04-15T23:21:09.393Z,11.30
2023-04-15T23:23:54.581Z,9.30
2023-04-15T23:26:39.505Z,9.02
2023-04-15T23:29:24.564Z,9.52
2023-04-15T23:32:09.601Z,9.48
2023-04-15T23:34:54.665Z,8.32
2023-04-15T23:37:39.546Z,10.73
2023-04-15T23:40:24.644Z,14.05
2023-04-15T23:43:09.301Z,14.75
2023-04-15T23:45:54.373Z,14.77
2023-04-15T23:48:40.496Z,14.55
2023-04-15T23:51:25.299Z,16.50
2023-04-15T23:54:10.430Z,12.60
2023-04-15T23:56:55.489Z,13.35
2023-04-15T23:59:40.404Z,9.82
